sensor_id;sensor_type;location;lat;lon;timestamp;temperature;humidity
13488;DHT22;6816;48.506;9.050;2023-02-28T05:18:35;-1.60;99.90
13488;DHT22;6816;48.506;9.050;2023-02-28T05:21:56;0.20;99.90
13488;DHT22;6816;48.506;9.050;2023-02-28T05:24:57;0.50;99.90
13488;DHT22;6816;48.506;9.050;2023-02-28T05:27:59;0.80;99.90
13488;DHT22;6816;48.506;9.050;2023-02-28T05:30:59;1.10;99.90
13488;DHT22;6816;48.506;9.050;2023-02-28T05:34:00;1.10;99.90
13488;DHT22;6816;48.506;9.050;2023-02-28T05:37:01;1.20;99.90
13488;DHT22;6816;48.506;9.050;2023-02-28T05:40:02;1.30;99.90
13488;DHT22;6816;48.506;9.050;2023-02-28T05:43:09;1.40;99.90
13488;DHT22;6816;48.506;9.050;2023-02-28T05:46:11;1.50;99.90
13488;DHT22;6816;48.506;9.050;2023-02-28T05:49:12;1.50;99.90
13488;DHT22;6816;48.506;9.050;2023-02-28T05:52:13;1.50;99.90
13488;DHT22;6816;48.506;9.050;2023-02-28T05:55:14;1.70;99.90
13488;DHT22;6816;48.506;9.050;2023-02-28T05:58:14;1.60;99.90
13488;DHT22;6816;48.506;9.050;2023-02-28T06:01:24;1.60;99.90
13488;DHT22;6816;48.506;9.050;2023-02-28T06:04:25;1.60;99.90
13488;DHT22;6816;48.506;9.050;2023-02-28T06:07:26;1.70;99.90
13488;DHT22;6816;48.506;9.050;2023-02-28T06:10:26;1.70;99.90
13488;DHT22;6816;48.506;9.050;2023-02-28T06:13:27;1.80;99.90
13488;DHT22;6816;48.506;9.050;2023-02-28T06:16:29;1.70;99.90
13488;DHT22;6816;48.506;9.050;2023-02-28T06:19:30;1.70;99.90
13488;DHT22;6816;48.506;9.050;2023-02-28T06:22:31;1.90;99.90
13488;DHT22;6816;48.506;9.050;2023-02-28T06:25:31;2.00;99.90
13488;DHT22;6816;48.506;9.050;2023-02-28T06:28:32;1.80;99.90
13488;DHT22;6816;48.506;9.050;2023-02-28T06:31:33;1.80;99.90
13488;DHT22;6816;48.506;9.050;2023-02-28T06:34:33;1.90;99.90
13488;DHT22;6816;48.506;9.050;2023-02-28T06:37:34;2.10;99.90
13488;DHT22;6816;48.506;9.050;2023-02-28T06:40:34;1.90;99.90
13488;DHT22;6816;48.506;9.050;2023-02-28T06:43:39;1.90;99.90
13488;DHT22;6816;48.506;9.050;2023-02-28T06:46:41;1.90;99.90
13488;DHT22;6816;48.506;9.050;2023-02-28T06:49:42;2.00;99.90
13488;DHT22;6816;48.506;9.050;2023-02-28T06:52:42;2.10;99.90
13488;DHT22;6816;48.506;9.050;2023-02-28T06:55:43;2.00;99.90
13488;DHT22;6816;48.506;9.050;2023-02-28T06:58:48;2.00;99.90
13488;DHT22;6816;48.506;9.050;2023-02-28T07:01:49;2.00;99.90
13488;DHT22;6816;48.506;9.050;2023-02-28T07:04:50;2.10;99.90
13488;DHT22;6816;48.506;9.050;2023-02-28T07:07:50;2.10;99.90
13488;DHT22;6816;48.506;9.050;2023-02-28T07:10:56;2.10;99.90
13488;DHT22;6816;48.506;9.050;2023-02-28T07:13:57;2.10;99.90
13488;DHT22;6816;48.506;9.050;2023-02-28T07:16:57;2.20;99.90
13488;DHT22;6816;48.506;9.050;2023-02-28T07:19:58;2.20;99.90
13488;DHT22;6816;48.506;9.050;2023-02-28T07:22:59;2.20;99.90
13488;DHT22;6816;48.506;9.050;2023-02-28T07:25:59;2.40;99.90
13488;DHT22;6816;48.506;9.050;2023-02-28T07:29:00;2.40;99.90
13488;DHT22;6816;48.506;9.050;2023-02-28T07:32:00;2.30;99.90
13488;DHT22;6816;48.506;9.050;2023-02-28T07:35:01;2.30;99.90
13488;DHT22;6816;48.506;9.050;2023-02-28T07:38:02;2.40;99.90
13488;DHT22;6816;48.506;9.050;2023-02-28T07:41:04;2.40;99.90
13488;DHT22;6816;48.506;9.050;2023-02-28T07:44:05;2.50;99.90
13488;DHT22;6816;48.506;9.050;2023-02-28T07:47:09;2.40;99.90
13488;DHT22;6816;48.506;9.050;2023-02-28T07:50:13;2.50;99.90
13488;DHT22;6816;48.506;9.050;2023-02-28T07:53:13;2.50;99.90
13488;DHT22;6816;48.506;9.050;2023-02-28T07:56:14;2.50;99.90
13488;DHT22;6816;48.506;9.050;2023-02-28T07:59:15;2.60;99.90
13488;DHT22;6816;48.506;9.050;2023-02-28T08:02:17;2.60;99.90
13488;DHT22;6816;48.506;9.050;2023-02-28T08:05:18;2.60;99.90
13488;DHT22;6816;48.506;9.050;2023-02-28T08:08:18;2.60;99.90
13488;DHT22;6816;48.506;9.050;2023-02-28T08:11:19;2.70;99.90
13488;DHT22;6816;48.506;9.050;2023-02-28T08:14:19;2.80;99.90
13488;DHT22;6816;48.506;9.050;2023-02-28T08:17:20;2.80;99.90
13488;DHT22;6816;48.506;9.050;2023-02-28T08:20:21;2.80;99.90
13488;DHT22;6816;48.506;9.050;2023-02-28T08:23:21;2.80;99.90
13488;DHT22;6816;48.506;9.050;2023-02-28T08:26:22;2.80;99.90
13488;DHT22;6816;48.506;9.050;2023-02-28T08:29:23;2.90;99.90
13488;DHT22;6816;48.506;9.050;2023-02-28T08:32:24;2.90;99.90
13488;DHT22;6816;48.506;9.050;2023-02-28T08:35:24;2.90;99.90
13488;DHT22;6816;48.506;9.050;2023-02-28T08:38:25;3.00;99.90
13488;DHT22;6816;48.506;9.050;2023-02-28T08:41:26;3.00;99.90
13488;DHT22;6816;48.506;9.050;2023-02-28T08:44:27;3.10;99.90
13488;DHT22;6816;48.506;9.050;2023-02-28T08:47:27;3.10;99.90
13488;DHT22;6816;48.506;9.050;2023-02-28T08:50:28;3.20;99.90
13488;DHT22;6816;48.506;9.050;2023-02-28T08:53:29;3.20;99.90
13488;DHT22;6816;48.506;9.050;2023-02-28T08:56:30;3.30;99.90
13488;DHT22;6816;48.506;9.050;2023-02-28T08:59:32;3.30;99.90
13488;DHT22;6816;48.506;9.050;2023-02-28T09:02:32;3.40;99.90
13488;DHT22;6816;48.506;9.050;2023-02-28T09:05:33;3.40;99.90
13488;DHT22;6816;48.506;9.050;2023-02-28T09:08:34;3.40;99.90
13488;DHT22;6816;48.506;9.050;2023-02-28T09:11:35;3.60;99.90
13488;DHT22;6816;48.506;9.050;2023-02-28T09:14:36;3.50;99.90
13488;DHT22;6816;48.506;9.050;2023-02-28T09:17:37;3.60;99.90
13488;DHT22;6816;48.506;9.050;2023-02-28T09:20:38;3.60;99.90
13488;DHT22;6816;48.506;9.050;2023-02-28T09:23:46;3.70;99.90
13488;DHT22;6816;48.506;9.050;2023-02-28T09:26:47;3.80;99.90
13488;DHT22;6816;48.506;9.050;2023-02-28T09:29:48;3.80;99.90
13488;DHT22;6816;48.506;9.050;2023-02-28T09:32:48;3.90;99.90
13488;DHT22;6816;48.506;9.050;2023-02-28T09:35:59;3.90;99.90
13488;DHT22;6816;48.506;9.050;2023-02-28T09:39:00;4.00;99.90
13488;DHT22;6816;48.506;9.050;2023-02-28T09:42:02;4.00;99.90
13488;DHT22;6816;48.506;9.050;2023-02-28T09:45:11;4.00;99.90
13488;DHT22;6816;48.506;9.050;2023-02-28T09:48:17;4.10;99.90
13488;DHT22;6816;48.506;9.050;2023-02-28T09:51:46;4.20;99.90
13488;DHT22;6816;48.506;9.050;2023-02-28T09:54:49;4.20;99.90
13488;DHT22;6816;48.506;9.050;2023-02-28T09:57:50;4.30;99.90
13488;DHT22;6816;48.506;9.050;2023-02-28T10:01:03;4.40;99.90
13488;DHT22;6816;48.506;9.050;2023-02-28T10:11:01;4.60;99.90
13488;DHT22;6816;48.506;9.050;2023-02-28T10:14:11;4.70;99.90
13488;DHT22;6816;48.506;9.050;2023-02-28T10:17:23;4.80;99.90
13488;DHT22;6816;48.506;9.050;2023-02-28T10:20:26;4.80;99.90
13488;DHT22;6816;48.506;9.050;2023-02-28T10:23:34;4.90;99.90
13488;DHT22;6816;48.506;9.050;2023-02-28T10:26:36;5.00;99.90
13488;DHT22;6816;48.506;9.050;2023-02-28T10:29:38;5.00;99.90
13488;DHT22;6816;48.506;9.050;2023-02-28T10:32:47;5.00;99.90
13488;DHT22;6816;48.506;9.050;2023-02-28T10:35:50;5.10;99.90
13488;DHT22;6816;48.506;9.050;2023-02-28T10:38:51;5.20;99.90
13488;DHT22;6816;48.506;9.050;2023-02-28T10:41:51;5.40;99.90
13488;DHT22;6816;48.506;9.050;2023-02-28T10:45:18;5.40;99.90
13488;DHT22;6816;48.506;9.050;2023-02-28T10:51:22;5.50;99.90
13488;DHT22;6816;48.506;9.050;2023-02-28T10:54:31;5.60;99.90
13488;DHT22;6816;48.506;9.050;2023-02-28T10:57:35;5.50;99.90
13488;DHT22;6816;48.506;9.050;2023-02-28T11:00:37;5.60;99.90
13488;DHT22;6816;48.506;9.050;2023-02-28T11:03:37;5.60;99.90
13488;DHT22;6816;48.506;9.050;2023-02-28T11:06:38;5.70;99.90
13488;DHT22;6816;48.506;9.050;2023-02-28T11:09:40;5.70;99.90
13488;DHT22;6816;48.506;9.050;2023-02-28T11:12:44;5.70;99.90
13488;DHT22;6816;48.506;9.050;2023-02-28T11:16:00;5.70;99.90
13488;DHT22;6816;48.506;9.050;2023-02-28T11:19:06;5.70;96.50
13488;DHT22;6816;48.506;9.050;2023-02-28T11:22:23;5.70;99.90
13488;DHT22;6816;48.506;9.050;2023-02-28T11:25:34;5.80;99.90
13488;DHT22;6816;48.506;9.050;2023-02-28T11:28:38;5.80;98.60
13488;DHT22;6816;48.506;9.050;2023-02-28T11:31:38;5.90;99.90
13488;DHT22;6816;48.506;9.050;2023-02-28T11:34:40;5.90;99.90
13488;DHT22;6816;48.506;9.050;2023-02-28T11:37:41;6.00;99.90
13488;DHT22;6816;48.506;9.050;2023-02-28T11:44:18;6.10;96.90
13488;DHT22;6816;48.506;9.050;2023-02-28T11:47:47;6.20;97.20
13488;DHT22;6816;48.506;9.050;2023-02-28T11:54:29;6.30;97.60
13488;DHT22;6816;48.506;9.050;2023-02-28T12:21:11;8.60;99.90
13488;DHT22;6816;48.506;9.050;2023-02-28T12:27:23;9.50;99.90
13488;DHT22;6816;48.506;9.050;2023-02-28T12:30:35;9.90;99.90
13488;DHT22;6816;48.506;9.050;2023-02-28T12:33:44;10.20;99.90
13488;DHT22;6816;48.506;9.050;2023-02-28T12:36:45;10.50;99.90
13488;DHT22;6816;48.506;9.050;2023-02-28T12:39:50;10.60;99.90
13488;DHT22;6816;48.506;9.050;2023-02-28T12:42:58;10.70;99.90
13488;DHT22;6816;48.506;9.050;2023-02-28T12:49:10;10.90;99.40
13488;DHT22;6816;48.506;9.050;2023-02-28T12:52:17;10.90;96.60
13488;DHT22;6816;48.506;9.050;2023-02-28T12:58:45;10.50;92.00
13488;DHT22;6816;48.506;9.050;2023-02-28T13:11:49;9.40;91.10
13488;DHT22;6816;48.506;9.050;2023-02-28T13:15:08;9.40;95.60
13488;DHT22;6816;48.506;9.050;2023-02-28T13:18:45;9.40;94.10
13488;DHT22;6816;48.506;9.050;2023-02-28T13:21:47;9.50;92.60
13488;DHT22;6816;48.506;9.050;2023-02-28T13:24:56;9.50;96.90
13488;DHT22;6816;48.506;9.050;2023-02-28T13:27:56;9.60;93.60
13488;DHT22;6816;48.506;9.050;2023-02-28T13:31:05;9.60;96.70
13488;DHT22;6816;48.506;9.050;2023-02-28T13:34:13;9.60;94.20
13488;DHT22;6816;48.506;9.050;2023-02-28T13:40:30;9.60;93.90
13488;DHT22;6816;48.506;9.050;2023-02-28T13:43:59;9.60;92.50
13488;DHT22;6816;48.506;9.050;2023-02-28T13:56:29;9.90;97.60
13488;DHT22;6816;48.506;9.050;2023-02-28T13:59:53;10.00;93.40
13488;DHT22;6816;48.506;9.050;2023-02-28T14:03:14;10.10;95.90
13488;DHT22;6816;48.506;9.050;2023-02-28T14:06:22;10.20;94.10
13488;DHT22;6816;48.506;9.050;2023-02-28T14:15:55;10.10;91.20
13488;DHT22;6816;48.506;9.050;2023-02-28T14:19:13;9.90;94.10
13488;DHT22;6816;48.506;9.050;2023-02-28T14:22:53;9.80;91.50
13488;DHT22;6816;48.506;9.050;2023-02-28T14:33:31;9.30;92.20
13488;DHT22;6816;48.506;9.050;2023-02-28T14:36:19;9.20;91.30
13488;DHT22;6816;48.506;9.050;2023-02-28T14:39:26;9.00;91.50
13488;DHT22;6816;48.506;9.050;2023-02-28T14:42:36;8.80;92.70
13488;DHT22;6816;48.506;9.050;2023-02-28T14:45:59;8.80;92.70
13488;DHT22;6816;48.506;9.050;2023-02-28T14:49:00;8.60;93.40
13488;DHT22;6816;48.506;9.050;2023-02-28T14:52:22;8.60;94.00
13488;DHT22;6816;48.506;9.050;2023-02-28T14:55:27;8.50;91.80
13488;DHT22;6816;48.506;9.050;2023-02-28T14:58:31;8.40;94.90
13488;DHT22;6816;48.506;9.050;2023-02-28T15:01:32;8.40;94.40
13488;DHT22;6816;48.506;9.050;2023-02-28T15:04:33;8.40;95.60
13488;DHT22;6816;48.506;9.050;2023-02-28T15:07:34;8.40;95.70
13488;DHT22;6816;48.506;9.050;2023-02-28T15:10:35;8.30;95.60
13488;DHT22;6816;48.506;9.050;2023-02-28T15:13:45;8.30;95.70
13488;DHT22;6816;48.506;9.050;2023-02-28T15:16:52;8.30;94.40
13488;DHT22;6816;48.506;9.050;2023-02-28T15:19:56;8.30;94.60
13488;DHT22;6816;48.506;9.050;2023-02-28T15:22:57;8.40;95.70
13488;DHT22;6816;48.506;9.050;2023-02-28T15:25:58;8.20;95.30
13488;DHT22;6816;48.506;9.050;2023-02-28T15:29:04;8.20;95.30
13488;DHT22;6816;48.506;9.050;2023-02-28T15:32:07;8.20;94.80
13488;DHT22;6816;48.506;9.050;2023-02-28T15:35:30;8.20;94.70
13488;DHT22;6816;48.506;9.050;2023-02-28T15:38:34;8.20;92.10
13488;DHT22;6816;48.506;9.050;2023-02-28T15:41:36;8.20;93.80
13488;DHT22;6816;48.506;9.050;2023-02-28T15:44:40;8.10;94.20
13488;DHT22;6816;48.506;9.050;2023-02-28T15:47:45;8.20;95.00
13488;DHT22;6816;48.506;9.050;2023-02-28T15:51:16;8.10;93.70
13488;DHT22;6816;48.506;9.050;2023-02-28T15:54:32;8.10;91.80
13488;DHT22;6816;48.506;9.050;2023-02-28T15:57:33;8.10;93.40
13488;DHT22;6816;48.506;9.050;2023-02-28T16:00:34;8.00;95.50
13488;DHT22;6816;48.506;9.050;2023-02-28T16:03:43;8.10;95.30
13488;DHT22;6816;48.506;9.050;2023-02-28T16:10:00;8.00;92.30
13488;DHT22;6816;48.506;9.050;2023-02-28T16:13:02;7.90;95.00
13488;DHT22;6816;48.506;9.050;2023-02-28T16:16:03;7.90;95.00
13488;DHT22;6816;48.506;9.050;2023-02-28T16:19:04;7.90;95.10
13488;DHT22;6816;48.506;9.050;2023-02-28T16:22:04;7.80;95.00
13488;DHT22;6816;48.506;9.050;2023-02-28T16:25:05;7.80;95.20
13488;DHT22;6816;48.506;9.050;2023-02-28T16:28:15;7.80;95.10
13488;DHT22;6816;48.506;9.050;2023-02-28T16:31:18;7.80;93.50
13488;DHT22;6816;48.506;9.050;2023-02-28T16:34:19;7.70;94.80
13488;DHT22;6816;48.506;9.050;2023-02-28T16:37:20;7.70;95.10
13488;DHT22;6816;48.506;9.050;2023-02-28T16:40:26;7.50;95.70
13488;DHT22;6816;48.506;9.050;2023-02-28T16:43:29;7.50;93.90
13488;DHT22;6816;48.506;9.050;2023-02-28T16:46:39;7.40;94.90
13488;DHT22;6816;48.506;9.050;2023-02-28T16:49:40;7.40;92.70
13488;DHT22;6816;48.506;9.050;2023-02-28T16:52:43;7.20;94.90
13488;DHT22;6816;48.506;9.050;2023-02-28T16:55:44;7.20;94.80
13488;DHT22;6816;48.506;9.050;2023-02-28T16:58:45;7.20;94.60
13488;DHT22;6816;48.506;9.050;2023-02-28T17:01:46;7.10;94.50
13488;DHT22;6816;48.506;9.050;2023-02-28T17:04:46;7.10;94.40
13488;DHT22;6816;48.506;9.050;2023-02-28T17:07:48;6.90;94.40
13488;DHT22;6816;48.506;9.050;2023-02-28T17:10:49;7.00;94.30
13488;DHT22;6816;48.506;9.050;2023-02-28T17:13:50;6.80;94.60
13488;DHT22;6816;48.506;9.050;2023-02-28T17:16:50;6.70;94.20
13488;DHT22;6816;48.506;9.050;2023-02-28T17:19:51;6.60;94.50
13488;DHT22;6816;48.506;9.050;2023-02-28T17:22:53;6.50;94.30
13488;DHT22;6816;48.506;9.050;2023-02-28T17:25:54;6.40;93.90
13488;DHT22;6816;48.506;9.050;2023-02-28T17:28:56;6.30;94.00
13488;DHT22;6816;48.506;9.050;2023-02-28T17:31:57;6.20;93.80
13488;DHT22;6816;48.506;9.050;2023-02-28T17:34:57;6.20;94.20
13488;DHT22;6816;48.506;9.050;2023-02-28T17:37:58;6.10;94.50
13488;DHT22;6816;48.506;9.050;2023-02-28T17:40:59;6.10;94.40
13488;DHT22;6816;48.506;9.050;2023-02-28T17:43:59;5.90;94.40
13488;DHT22;6816;48.506;9.050;2023-02-28T17:47:00;5.90;94.50
13488;DHT22;6816;48.506;9.050;2023-02-28T17:50:01;5.80;94.50
13488;DHT22;6816;48.506;9.050;2023-02-28T17:53:01;5.80;94.50
13488;DHT22;6816;48.506;9.050;2023-02-28T17:56:02;5.70;94.30
13488;DHT22;6816;48.506;9.050;2023-02-28T17:59:03;5.60;94.30
13488;DHT22;6816;48.506;9.050;2023-02-28T18:02:03;5.50;94.20
13488;DHT22;6816;48.506;9.050;2023-02-28T18:05:05;5.40;94.30
13488;DHT22;6816;48.506;9.050;2023-02-28T18:08:09;5.40;94.10
13488;DHT22;6816;48.506;9.050;2023-02-28T18:11:10;5.30;93.90
13488;DHT22;6816;48.506;9.050;2023-02-28T18:14:19;5.30;94.40
13488;DHT22;6816;48.506;9.050;2023-02-28T18:17:19;5.20;94.20
13488;DHT22;6816;48.506;9.050;2023-02-28T18:20:20;5.10;94.40
13488;DHT22;6816;48.506;9.050;2023-02-28T18:23:21;5.10;94.30
13488;DHT22;6816;48.506;9.050;2023-02-28T18:26:22;5.10;94.30
13488;DHT22;6816;48.506;9.050;2023-02-28T18:29:25;4.90;94.20
13488;DHT22;6816;48.506;9.050;2023-02-28T18:32:26;4.80;93.90
13488;DHT22;6816;48.506;9.050;2023-02-28T18:35:29;5.00;94.50
13488;DHT22;6816;48.506;9.050;2023-02-28T18:38:36;4.70;94.40
13488;DHT22;6816;48.506;9.050;2023-02-28T18:41:37;4.80;94.40
13488;DHT22;6816;48.506;9.050;2023-02-28T18:44:38;4.60;94.40
13488;DHT22;6816;48.506;9.050;2023-02-28T18:47:39;4.50;94.30
13488;DHT22;6816;48.506;9.050;2023-02-28T18:50:40;4.40;94.40
13488;DHT22;6816;48.506;9.050;2023-02-28T18:53:41;4.30;94.30
13488;DHT22;6816;48.506;9.050;2023-02-28T18:56:43;4.30;94.30
13488;DHT22;6816;48.506;9.050;2023-02-28T18:59:43;4.20;94.40
13488;DHT22;6816;48.506;9.050;2023-02-28T19:02:44;4.10;94.50
13488;DHT22;6816;48.506;9.050;2023-02-28T19:05:45;4.20;94.50
13488;DHT22;6816;48.506;9.050;2023-02-28T19:08:46;4.00;94.50
13488;DHT22;6816;48.506;9.050;2023-02-28T19:11:51;4.10;94.60
13488;DHT22;6816;48.506;9.050;2023-02-28T19:14:51;4.00;94.30
13488;DHT22;6816;48.506;9.050;2023-02-28T19:17:52;3.90;94.70
13488;DHT22;6816;48.506;9.050;2023-02-28T19:20:52;4.00;94.70
13488;DHT22;6816;48.506;9.050;2023-02-28T19:23:54;3.70;94.60
13488;DHT22;6816;48.506;9.050;2023-02-28T19:26:54;3.70;94.60
13488;DHT22;6816;48.506;9.050;2023-02-28T19:29:55;3.70;94.70
13488;DHT22;6816;48.506;9.050;2023-02-28T19:32:58;3.60;94.80
13488;DHT22;6816;48.506;9.050;2023-02-28T19:36:00;3.50;94.80
13488;DHT22;6816;48.506;9.050;2023-02-28T19:39:00;3.50;94.60
13488;DHT22;6816;48.506;9.050;2023-02-28T19:42:01;3.40;94.80
13488;DHT22;6816;48.506;9.050;2023-02-28T19:45:02;3.40;94.80
13488;DHT22;6816;48.506;9.050;2023-02-28T19:48:03;3.40;94.80
13488;DHT22;6816;48.506;9.050;2023-02-28T19:51:07;3.30;94.90
13488;DHT22;6816;48.506;9.050;2023-02-28T19:54:08;3.30;94.60
13488;DHT22;6816;48.506;9.050;2023-02-28T19:57:09;3.20;94.90
13488;DHT22;6816;48.506;9.050;2023-02-28T20:00:12;3.20;94.90
13488;DHT22;6816;48.506;9.050;2023-02-28T20:03:14;3.10;94.70
13488;DHT22;6816;48.506;9.050;2023-02-28T20:06:14;3.10;94.90
13488;DHT22;6816;48.506;9.050;2023-02-28T20:09:15;3.00;94.90
13488;DHT22;6816;48.506;9.050;2023-02-28T20:12:16;2.90;94.90
13488;DHT22;6816;48.506;9.050;2023-02-28T20:15:18;2.90;94.90
13488;DHT22;6816;48.506;9.050;2023-02-28T20:18:18;2.90;95.10
13488;DHT22;6816;48.506;9.050;2023-02-28T20:21:19;2.80;95.10
13488;DHT22;6816;48.506;9.050;2023-02-28T20:24:20;2.80;95.10
13488;DHT22;6816;48.506;9.050;2023-02-28T20:27:25;2.70;95.20
13488;DHT22;6816;48.506;9.050;2023-02-28T20:30:25;2.70;95.30
13488;DHT22;6816;48.506;9.050;2023-02-28T20:33:26;2.60;95.30
13488;DHT22;6816;48.506;9.050;2023-02-28T20:36:27;2.60;95.30
13488;DHT22;6816;48.506;9.050;2023-02-28T20:39:27;2.60;95.30
13488;DHT22;6816;48.506;9.050;2023-02-28T20:42:28;2.50;95.30
13488;DHT22;6816;48.506;9.050;2023-02-28T20:45:29;2.50;95.30
13488;DHT22;6816;48.506;9.050;2023-02-28T20:48:32;2.40;95.30
13488;DHT22;6816;48.506;9.050;2023-02-28T20:51:33;2.40;95.40
13488;DHT22;6816;48.506;9.050;2023-02-28T20:54:33;2.30;95.40
13488;DHT22;6816;48.506;9.050;2023-02-28T20:57:35;2.30;95.50
13488;DHT22;6816;48.506;9.050;2023-02-28T21:00:36;2.40;95.60
13488;DHT22;6816;48.506;9.050;2023-02-28T21:03:43;2.30;95.60
13488;DHT22;6816;48.506;9.050;2023-02-28T21:06:44;2.20;95.30
13488;DHT22;6816;48.506;9.050;2023-02-28T21:09:46;2.20;95.60
13488;DHT22;6816;48.506;9.050;2023-02-28T21:12:49;2.20;95.60
13488;DHT22;6816;48.506;9.050;2023-02-28T21:15:50;2.20;95.50
13488;DHT22;6816;48.506;9.050;2023-02-28T21:18:50;2.10;95.80
13488;DHT22;6816;48.506;9.050;2023-02-28T21:21:53;2.10;95.80
13488;DHT22;6816;48.506;9.050;2023-02-28T21:24:54;2.10;95.80
13488;DHT22;6816;48.506;9.050;2023-02-28T21:27:55;2.00;95.90
13488;DHT22;6816;48.506;9.050;2023-02-28T21:31:05;2.00;95.90
13488;DHT22;6816;48.506;9.050;2023-02-28T21:34:08;2.00;95.20
13488;DHT22;6816;48.506;9.050;2023-02-28T21:37:10;2.00;95.90
13488;DHT22;6816;48.506;9.050;2023-02-28T21:40:11;1.90;96.00
13488;DHT22;6816;48.506;9.050;2023-02-28T21:43:12;1.90;95.90
13488;DHT22;6816;48.506;9.050;2023-02-28T21:46:21;1.90;96.10
13488;DHT22;6816;48.506;9.050;2023-02-28T21:49:22;2.00;95.50
13488;DHT22;6816;48.506;9.050;2023-02-28T21:52:23;1.80;96.00
13488;DHT22;6816;48.506;9.050;2023-02-28T21:55:24;1.90;96.10
13488;DHT22;6816;48.506;9.050;2023-02-28T21:58:24;1.80;96.00
13488;DHT22;6816;48.506;9.050;2023-02-28T22:04:29;1.70;95.80
13488;DHT22;6816;48.506;9.050;2023-02-28T22:07:30;1.80;96.10
13488;DHT22;6816;48.506;9.050;2023-02-28T22:10:33;1.70;96.10
13488;DHT22;6816;48.506;9.050;2023-02-28T22:13:35;1.70;95.90
13488;DHT22;6816;48.506;9.050;2023-02-28T22:16:35;1.60;96.10
13488;DHT22;6816;48.506;9.050;2023-02-28T22:19:38;1.60;96.20
13488;DHT22;6816;48.506;9.050;2023-02-28T22:22:39;1.60;96.20
13488;DHT22;6816;48.506;9.050;2023-02-28T22:25:40;1.60;96.20
13488;DHT22;6816;48.506;9.050;2023-02-28T22:28:40;1.50;96.20
13488;DHT22;6816;48.506;9.050;2023-02-28T22:31:41;1.50;96.20
13488;DHT22;6816;48.506;9.050;2023-02-28T22:34:41;1.50;96.30
13488;DHT22;6816;48.506;9.050;2023-02-28T22:37:42;1.50;96.30
13488;DHT22;6816;48.506;9.050;2023-02-28T22:40:43;1.50;96.60
13488;DHT22;6816;48.506;9.050;2023-02-28T22:43:43;1.40;96.20
13488;DHT22;6816;48.506;9.050;2023-02-28T22:46:44;1.40;96.20
13488;DHT22;6816;48.506;9.050;2023-02-28T22:49:45;1.40;96.20
13488;DHT22;6816;48.506;9.050;2023-02-28T22:52:45;1.30;96.20
13488;DHT22;6816;48.506;9.050;2023-02-28T22:55:53;1.30;96.50
13488;DHT22;6816;48.506;9.050;2023-02-28T22:58:56;1.30;96.40
13488;DHT22;6816;48.506;9.050;2023-02-28T23:01:57;1.30;97.10
13488;DHT22;6816;48.506;9.050;2023-02-28T23:04:57;1.30;97.50
13488;DHT22;6816;48.506;9.050;2023-02-28T23:07:58;1.30;97.60
13488;DHT22;6816;48.506;9.050;2023-02-28T23:11:00;1.40;97.60
13488;DHT22;6816;48.506;9.050;2023-02-28T23:14:01;1.30;97.60
13488;DHT22;6816;48.506;9.050;2023-02-28T23:17:02;1.30;97.50
13488;DHT22;6816;48.506;9.050;2023-02-28T23:20:03;1.30;97.40
13488;DHT22;6816;48.506;9.050;2023-02-28T23:23:04;1.30;97.20
13488;DHT22;6816;48.506;9.050;2023-02-28T23:26:06;1.30;97.10
13488;DHT22;6816;48.506;9.050;2023-02-28T23:29:07;1.20;97.00
13488;DHT22;6816;48.506;9.050;2023-02-28T23:32:08;1.40;97.20
13488;DHT22;6816;48.506;9.050;2023-02-28T23:35:09;1.10;97.10
13488;DHT22;6816;48.506;9.050;2023-02-28T23:38:11;1.20;97.00
13488;DHT22;6816;48.506;9.050;2023-02-28T23:41:12;1.10;97.00
13488;DHT22;6816;48.506;9.050;2023-02-28T23:44:13;1.20;96.90
13488;DHT22;6816;48.506;9.050;2023-02-28T23:47:16;1.00;96.90
13488;DHT22;6816;48.506;9.050;2023-02-28T23:50:16;1.00;96.80
13488;DHT22;6816;48.506;9.050;2023-02-28T23:53:17;1.00;96.50
13488;DHT22;6816;48.506;9.050;2023-02-28T23:56:20;0.90;96.30
13488;DHT22;6816;48.506;9.050;2023-02-28T23:59:21;0.80;96.10
